Time;durP1;ratioP1;P1;durP2;ratioP2;P2;SDS_P1;SDS_P2;PMS_P1;PMS_P2;Temp;Humidity;BMP_temperature;BMP_pressure;BME280_temperature;BME280_humidity;BME280_pressure;Samples;Min_cycle;Max_cycle;Signal;HPM_P1;HPM_P2
2023/06/09 00:01:53;;;;;;;9.32;7.15;;;17.50;99.90;;;-144.05;62.59;56872.19;5055787;28;20559;-79
2023/06/09 00:04:23;;;;;;;8.23;6.88;;;17.30;99.90;;;-144.05;63.45;56861.56;5054483;28;20036;-79
2023/06/09 00:06:51;;;;;;;10.13;6.93;;;17.10;99.90;;;-144.05;64.38;56840.34;5054435;28;20064;-80
2023/06/09 00:09:20;;;;;;;12.32;7.95;;;16.90;99.90;;;-144.05;65.42;56870.06;5052942;28;20051;-79
2023/06/09 00:11:46;;;;;;;11.40;7.18;;;16.80;99.90;;;-144.05;65.85;56867.94;5054015;28;20056;-80
2023/06/09 00:14:12;;;;;;;8.73;6.63;;;16.70;99.90;;;-144.05;66.11;56855.22;5054324;28;20025;-78
2023/06/09 00:16:38;;;;;;;11.43;7.38;;;16.60;99.90;;;-144.05;66.63;56853.09;5055327;28;20033;-79
2023/06/09 00:19:09;;;;;;;8.35;7.28;;;16.60;99.90;;;-144.05;67.36;56853.09;5053763;28;20025;-80
2023/06/09 00:21:37;;;;;;;8.93;6.97;;;16.40;99.90;;;-144.05;68.10;56861.56;5055619;28;20389;-80
2023/06/09 00:24:04;;;;;;;15.15;8.70;;;16.30;99.90;;;-144.05;68.64;56861.56;5055892;28;20047;-79
2023/06/09 00:26:30;;;;;;;11.00;7.63;;;16.20;99.90;;;-144.05;69.13;56861.56;5054503;28;20036;-78
2023/06/09 00:28:56;;;;;;;10.50;8.70;;;16.20;99.90;;;-144.05;69.62;56865.81;5054576;28;20043;-82
2023/06/09 00:31:22;;;;;;;12.10;7.88;;;16.20;99.90;;;-144.05;70.00;56844.59;5055677;28;20530;-79
2023/06/09 00:33:48;;;;;;;12.60;7.88;;;16.10;99.90;;;-144.05;70.00;56891.31;5053514;28;20175;-78
2023/06/09 00:36:14;;;;;;;12.45;8.38;;;16.00;99.90;;;-144.05;70.15;56848.84;5055227;28;20057;-79
2023/06/09 00:38:41;;;;;;;13.43;8.48;;;16.00;99.90;;;-144.05;70.81;56846.72;5054847;28;20021;-79
2023/06/09 00:41:07;;;;;;;9.95;7.78;;;16.00;99.90;;;-144.05;71.64;56863.69;5053823;28;20037;-78
2023/06/09 00:43:32;;;;;;;12.20;8.38;;;15.90;99.90;;;-144.05;71.43;56865.81;5053697;28;20490;-78
2023/06/09 00:46:05;;;;;;;11.48;8.05;;;15.90;99.90;;;-144.05;71.55;56846.72;5068908;28;20106;-79
2023/06/09 00:48:32;;;;;;;10.88;8.43;;;15.80;99.90;;;-144.05;71.58;56861.56;5053336;28;20033;-79
2023/06/09 00:50:59;;;;;;;12.57;9.45;;;15.90;99.90;;;-144.05;71.93;56846.72;5053091;28;20064;-79
2023/06/09 00:53:28;;;;;;;11.60;9.32;;;15.80;99.90;;;-144.05;72.04;56836.09;5051755;28;20036;-80
2023/06/09 00:55:54;;;;;;;12.75;9.13;;;15.80;99.90;;;-144.05;72.37;56857.34;5053232;28;20029;-79
2023/06/09 00:58:23;;;;;;;10.73;8.73;;;15.80;99.90;;;-144.05;72.40;56878.56;5053715;28;20104;-80
2023/06/09 01:00:50;;;;;;;14.07;8.35;;;15.80;99.90;;;-144.05;72.65;56882.81;5053370;28;20032;-81
2023/06/09 01:03:18;;;;;;;13.63;9.35;;;15.80;99.90;;;-144.05;72.98;56855.22;5053188;28;20032;-79
2023/06/09 01:05:44;;;;;;;11.18;8.70;;;15.80;99.90;;;-144.05;73.23;56876.44;5052967;28;20405;-79
2023/06/09 01:08:54;;;;;;;9.50;8.27;;;15.80;99.90;;;-144.05;73.59;56855.22;5052861;28;20095;-79
2023/06/09 01:12:35;;;;;;;13.57;8.70;;;15.70;99.90;;;-144.05;73.56;56853.09;5052547;28;20029;-80
2023/06/09 01:15:33;;;;;;;12.40;10.27;;;15.60;99.90;;;-144.05;74.34;56857.34;5010442;28;20026;-78
2023/06/09 01:18:04;;;;;;;13.95;10.15;;;15.50;99.90;;;-144.05;74.61;56882.81;5010515;28;20033;-79
2023/06/09 01:21:14;;;;;;;10.07;9.00;;;15.50;99.90;;;-144.05;74.70;56861.56;5040778;28;20578;-78
2023/06/09 01:24:00;;;;;;;13.30;10.15;;;15.50;99.90;;;-144.05;75.12;56853.09;5051475;28;20037;-79
2023/06/09 01:26:30;;;;;;;13.10;9.50;;;15.40;99.90;;;-144.05;75.30;56848.84;5051866;28;20041;-80
2023/06/09 01:28:59;;;;;;;13.07;10.82;;;15.40;99.90;;;-144.05;75.82;56857.34;5052800;28;20104;-79
2023/06/09 01:31:27;;;;;;;15.27;10.40;;;15.50;99.90;;;-144.05;75.95;56861.56;5052202;28;20033;-80
2023/06/09 01:33:54;;;;;;;14.23;10.05;;;15.40;99.90;;;-144.05;76.04;56816.97;5052822;28;20021;-79
2023/06/09 01:36:21;;;;;;;12.82;9.75;;;15.40;99.90;;;-144.05;76.30;56867.94;5051486;28;20032;-80
2023/06/09 01:38:47;;;;;;;14.38;9.75;;;15.30;99.90;;;-144.05;76.64;56855.22;5050762;28;20075;-79
2023/06/09 01:41:13;;;;;;;13.35;9.90;;;15.30;99.90;;;-144.05;76.82;56857.34;5052362;28;20112;-80
2023/06/09 01:43:39;;;;;;;15.40;10.38;;;15.30;99.90;;;-144.05;77.03;56855.22;5052217;28;20068;-79
2023/06/09 01:46:05;;;;;;;13.77;10.38;;;15.30;99.90;;;-144.05;77.44;56865.81;5052009;28;20032;-79
2023/06/09 01:49:22;;;;;;;14.13;10.65;;;15.20;99.90;;;-144.05;77.46;56857.34;5050616;28;20406;-80
2023/06/09 01:52:09;;;;;;;16.42;11.93;;;15.20;99.90;;;-144.05;77.67;56842.47;4993239;28;20087;-80
2023/06/09 01:54:54;;;;;;;21.00;13.32;;;15.20;99.90;;;-144.05;78.00;56878.56;5052011;28;20379;-79
2023/06/09 01:57:49;;;;;;;15.75;11.38;;;15.30;99.90;;;-144.05;77.08;56848.84;5052054;28;20032;-80
2023/06/09 02:00:16;;;;;;;14.10;10.68;;;15.40;99.90;;;-144.05;76.51;56853.09;5050572;28;20052;-79
2023/06/09 02:02:51;;;;;;;15.48;10.93;;;15.40;99.90;;;-144.05;76.34;56865.81;5051456;28;20127;-79
2023/06/09 02:05:20;;;;;;;16.73;12.23;;;15.40;99.90;;;-144.05;76.57;56840.34;5050973;28;20029;-80
2023/06/09 02:07:48;;;;;;;15.63;11.93;;;15.40;99.90;;;-144.05;76.71;56861.56;5051430;28;20056;-79
2023/06/09 02:10:16;;;;;;;17.45;10.55;;;15.40;99.90;;;-144.05;76.43;56850.97;5051338;28;20043;-79
2023/06/09 02:12:42;;;;;;;15.98;10.98;;;15.40;99.90;;;-144.05;76.31;56836.09;5052818;28;20021;-80
2023/06/09 02:15:08;;;;;;;14.60;11.10;;;15.40;99.90;;;-144.05;76.24;56861.56;5067897;28;20029;-80
2023/06/09 02:17:34;;;;;;;14.63;11.55;;;15.40;99.90;;;-144.05;76.44;56859.47;5052537;28;20116;-79
2023/06/09 02:20:00;;;;;;;17.20;11.38;;;15.40;99.90;;;-144.05;76.21;56848.84;5051091;28;20569;-79
2023/06/09 02:22:26;;;;;;;14.43;11.07;;;15.40;99.90;;;-144.05;76.19;56846.72;5050751;28;20036;-81
2023/06/09 02:24:52;;;;;;;14.88;11.38;;;15.40;99.90;;;-144.05;76.08;56857.34;5051203;28;20571;-80
2023/06/09 02:27:18;;;;;;;15.57;12.05;;;15.40;99.90;;;-144.05;76.76;56872.19;5052679;28;20427;-80
2023/06/09 02:29:44;;;;;;;14.98;11.25;;;15.40;99.90;;;-144.05;76.25;56859.47;5051035;28;20063;-79
2023/06/09 02:32:11;;;;;;;20.75;13.07;;;15.40;99.90;;;-144.05;76.69;56853.09;5050805;28;20048;-78
2023/06/09 02:34:37;;;;;;;17.55;11.93;;;15.50;99.90;;;-144.05;76.34;56855.22;5054528;28;20115;-79
2023/06/09 02:37:07;;;;;;;14.50;11.70;;;15.50;99.90;;;-144.05;75.89;56861.56;5055840;28;20108;-79
2023/06/09 02:39:34;;;;;;;18.45;12.15;;;15.50;99.90;;;-144.05;76.14;56863.69;5055922;28;20028;-81
2023/06/09 02:42:00;;;;;;;15.35;11.25;;;15.50;99.90;;;-144.05;75.89;56861.56;5056679;28;20029;-81
2023/06/09 02:44:28;;;;;;;11.90;9.45;;;15.50;99.90;;;-144.05;75.52;56857.34;5055034;28;20095;-79
2023/06/09 02:46:54;;;;;;;13.02;10.23;;;15.30;99.90;;;-144.05;75.89;56844.59;5055188;28;20043;-80
2023/06/09 02:49:20;;;;;;;12.65;9.90;;;15.20;99.90;;;-144.05;76.08;56863.69;5055819;28;20025;-81
2023/06/09 02:51:46;;;;;;;13.40;9.98;;;15.10;99.90;;;-144.05;76.63;56850.97;5055886;28;20035;-80
2023/06/09 02:54:12;;;;;;;12.57;9.65;;;14.90;99.90;;;-144.05;76.46;56848.84;5056218;28;20021;-78
2023/06/09 02:56:38;;;;;;;10.23;8.43;;;14.80;99.90;;;-144.05;76.65;56857.34;5054401;28;20120;-82
2023/06/09 02:59:05;;;;;;;12.48;10.25;;;14.60;99.90;;;-144.05;77.49;56863.69;5056644;28;20045;-79
2023/06/09 03:01:36;;;;;;;11.52;10.00;;;14.50;99.90;;;-144.05;77.96;56859.47;5055926;28;20116;-81
2023/06/09 03:04:05;;;;;;;14.20;10.13;;;14.40;99.90;;;-144.05;78.14;56872.19;5055876;28;20033;-79
2023/06/09 03:06:33;;;;;;;13.55;10.90;;;14.30;99.90;;;-144.05;78.49;56855.22;5054385;28;20040;-81
2023/06/09 03:09:02;;;;;;;15.52;11.07;;;14.30;99.90;;;-144.05;78.90;56844.59;5055829;28;20127;-82
2023/06/09 03:11:29;;;;;;;16.42;12.90;;;14.20;99.90;;;-144.05;79.38;56855.22;5055576;28;20035;-79
2023/06/09 03:13:55;;;;;;;19.98;14.38;;;14.20;99.90;;;-144.05;80.27;56848.84;5053886;28;20035;-79
2023/06/09 03:16:21;;;;;;;20.83;13.43;;;14.30;99.90;;;-144.05;80.39;56853.09;5055706;28;20432;-79
2023/06/09 03:18:47;;;;;;;18.10;13.52;;;14.30;99.90;;;-144.05;80.34;56853.09;5055945;28;20075;-81
2023/06/09 03:21:13;;;;;;;19.60;15.70;;;14.30;99.90;;;-144.05;81.16;56853.09;5055149;28;20021;-78
2023/06/09 03:23:42;;;;;;;20.40;14.40;;;14.40;99.90;;;-144.05;81.14;56857.34;5054141;28;20028;-78
2023/06/09 03:26:09;;;;;;;15.45;13.10;;;14.60;99.90;;;-144.05;80.79;56844.59;5055488;28;20347;-77
2023/06/09 03:28:34;;;;;;;20.40;14.02;;;14.70;99.90;;;-144.05;80.84;56848.84;5057025;28;20029;-81
2023/06/09 03:31:00;;;;;;;16.55;13.32;;;14.70;99.90;;;-144.05;80.47;56844.59;5058286;28;20035;-81
2023/06/09 03:33:26;;;;;;;19.55;13.25;;;14.70;99.90;;;-144.05;80.62;56848.84;5056936;28;20029;-81
2023/06/09 03:35:53;;;;;;;23.48;14.35;;;14.70;99.90;;;-144.05;80.84;56855.22;5058169;28;20025;-82
2023/06/09 03:38:19;;;;;;;20.98;11.50;;;14.70;99.90;;;-144.05;80.71;56850.97;5055892;28;20064;-82
2023/06/09 03:40:45;;;;;;;17.50;14.75;;;14.70;99.90;;;-144.05;81.20;56863.69;5056796;28;20064;-79
2023/06/09 03:43:13;;;;;;;18.13;14.00;;;14.70;99.90;;;-144.05;81.43;56846.72;5054922;28;20029;-80
2023/06/09 03:45:39;;;;;;;21.25;15.00;;;14.70;99.90;;;-144.05;81.49;56840.34;5053057;28;20029;-80
2023/06/09 03:48:07;;;;;;;17.92;14.38;;;14.90;99.90;;;-144.05;81.34;56863.69;5055542;28;20032;-80
2023/06/09 03:50:33;;;;;;;17.60;14.23;;;15.00;99.90;;;-144.05;81.11;56859.47;5054075;28;20113;-79
2023/06/09 03:52:59;;;;;;;17.65;14.05;;;15.00;99.90;;;-144.05;80.81;56857.34;5056232;28;20048;-80
2023/06/09 03:55:25;;;;;;;20.35;17.05;;;15.10;99.90;;;-144.05;80.97;56865.81;5054356;28;20025;-80
2023/06/09 03:57:51;;;;;;;27.65;17.13;;;15.10;99.90;;;-144.05;80.66;56861.56;5055308;28;20036;-78
2023/06/09 04:00:18;;;;;;;19.10;13.75;;;15.20;99.90;;;-144.05;80.30;56853.09;5053871;28;20083;-82
2023/06/09 04:02:44;;;;;;;21.90;17.45;;;15.30;99.90;;;-144.05;79.91;56844.59;5055275;28;20036;-79
2023/06/09 04:05:10;;;;;;;19.50;16.25;;;15.40;99.90;;;-144.05;79.28;56853.09;5053861;28;20033;-80
2023/06/09 04:07:36;;;;;;;20.98;16.83;;;15.50;99.90;;;-144.05;78.99;56882.81;5055437;28;20033;-83
2023/06/09 04:10:02;;;;;;;19.58;16.33;;;15.60;99.90;;;-144.05;78.31;56878.56;5054098;28;20371;-81
2023/06/09 04:12:30;;;;;;;18.75;15.13;;;15.60;99.90;;;-144.05;78.02;56846.72;5056077;28;20029;-80
2023/06/09 04:14:56;;;;;;;21.77;16.00;;;15.70;99.90;;;-144.05;78.01;56880.69;5054106;28;20089;-80
2023/06/09 04:17:24;;;;;;;17.88;14.75;;;15.70;99.90;;;-144.05;77.73;56857.34;5055250;28;20100;-82
2023/06/09 04:19:51;;;;;;;23.98;16.10;;;15.80;99.90;;;-144.05;77.70;56863.69;5053233;28;20486;-82
2023/06/09 04:22:17;;;;;;;19.60;16.88;;;15.80;99.90;;;-144.05;77.47;56870.06;5053398;28;20024;-79
2023/06/09 04:24:43;;;;;;;18.55;15.52;;;15.80;99.90;;;-144.05;77.09;56863.69;5054213;28;20130;-81
2023/06/09 04:27:09;;;;;;;18.88;15.98;;;15.90;99.90;;;-144.05;76.61;56859.47;5053991;28;20036;-80
2023/06/09 04:29:35;;;;;;;22.05;15.30;;;15.90;99.90;;;-144.05;76.32;56870.06;5054659;28;20047;-79
2023/06/09 04:32:01;;;;;;;15.70;13.07;;;16.00;99.90;;;-144.05;76.29;56872.19;5053725;28;20029;-80
2023/06/09 04:34:29;;;;;;;19.45;14.18;;;16.00;99.90;;;-144.05;76.09;56857.34;5056454;28;20028;-80
2023/06/09 04:36:59;;;;;;;19.23;15.60;;;16.20;99.90;;;-144.05;75.77;56876.44;5058474;28;20020;-80
2023/06/09 04:39:28;;;;;;;14.75;13.07;;;16.20;99.90;;;-144.05;75.53;56840.34;5056540;28;20032;-78
2023/06/09 04:41:54;;;;;;;18.85;14.65;;;16.30;99.90;;;-144.05;74.95;56870.06;5055346;28;20123;-79
2023/06/09 04:44:21;;;;;;;15.35;12.93;;;16.40;99.90;;;-144.05;74.02;56865.81;5055675;28;20444;-79
2023/06/09 04:46:49;;;;;;;16.85;12.27;;;16.60;99.90;;;-144.05;73.75;56857.34;5053933;28;20052;-78
2023/06/09 04:49:16;;;;;;;15.88;11.18;;;16.70;99.90;;;-144.05;73.29;56857.34;5059586;28;20025;-79
2023/06/09 04:51:50;;;;;;;17.77;13.88;;;16.80;99.90;;;-144.05;72.20;56880.69;5057357;28;20116;-79
2023/06/09 04:54:20;;;;;;;14.20;12.35;;;17.00;99.90;;;-144.05;71.20;56865.81;5055370;28;20025;-84
2023/06/09 04:56:52;;;;;;;18.50;12.35;;;17.20;99.90;;;-144.05;70.75;56853.09;5054267;28;20036;-81
2023/06/09 04:59:19;;;;;;;14.25;12.05;;;17.30;99.90;;;-144.05;70.30;56882.81;5054587;28;20498;-81
2023/06/09 05:01:48;;;;;;;13.35;11.30;;;17.50;99.90;;;-144.05;69.62;56853.09;5054005;28;20406;-82
2023/06/09 05:04:14;;;;;;;17.60;12.93;;;17.70;99.90;;;-144.05;68.10;56889.19;5055288;28;20029;-80
2023/06/09 05:06:40;;;;;;;12.35;10.85;;;17.80;99.90;;;-144.05;67.55;56887.06;5055880;28;20103;-80
2023/06/09 05:09:08;;;;;;;12.82;10.32;;;18.00;99.90;;;-144.05;66.83;56855.22;5054225;28;20033;-79
2023/06/09 05:11:35;;;;;;;15.02;12.57;;;18.10;99.90;;;-144.05;65.38;56870.06;5055632;28;20488;-81
2023/06/09 05:14:04;;;;;;;13.50;11.35;;;18.20;99.90;;;-144.05;64.60;56872.19;5055653;28;20500;-80
2023/06/09 05:16:31;;;;;;;15.45;11.05;;;18.40;99.90;;;-144.05;63.86;56893.44;5053636;28;20074;-81
2023/06/09 05:18:57;;;;;;;17.92;12.63;;;18.50;99.90;;;-144.05;62.80;56870.06;5057404;28;20085;-80
2023/06/09 05:21:25;;;;;;;12.90;10.77;;;18.60;99.90;;;-144.05;61.89;56876.44;5055740;28;20029;-82
2023/06/09 05:23:52;;;;;;;14.60;11.32;;;18.80;99.90;;;-144.05;61.26;56882.81;5055265;28;20040;-82
2023/06/09 05:26:19;;;;;;;17.83;11.32;;;18.90;99.90;;;-144.05;60.11;56876.44;5055422;28;20045;-82
2023/06/09 05:28:48;;;;;;;15.55;10.70;;;19.10;99.90;;;-144.05;59.64;56906.19;5054839;28;20086;-82
2023/06/09 05:31:16;;;;;;;12.95;10.60;;;19.30;99.90;;;-144.05;58.96;56884.94;5055602;28;20387;-81
2023/06/09 05:33:43;;;;;;;12.82;10.32;;;19.40;99.90;;;-144.05;58.66;56904.06;5054377;28;20049;-82
2023/06/09 05:36:09;;;;;;;14.93;11.02;;;19.50;99.90;;;-144.05;57.74;56887.06;5053661;28;20036;-81
2023/06/09 05:38:35;;;;;;;12.95;10.60;;;19.60;99.90;;;-144.05;57.24;56887.06;5054986;28;20053;-81
2023/06/09 05:41:01;;;;;;;14.48;10.18;;;19.70;99.90;;;-144.05;56.93;56887.06;5053205;28;20029;-81
2023/06/09 05:43:28;;;;;;;13.90;10.13;;;19.90;99.90;;;-144.05;56.42;56914.69;5055056;28;20437;-83
2023/06/09 05:45:56;;;;;;;10.02;8.70;;;20.10;99.90;;;-144.05;55.57;56889.19;5053133;28;20068;-81
2023/06/09 05:48:23;;;;;;;13.88;10.98;;;20.30;99.90;;;-144.05;54.02;56901.94;5053989;28;20087;-81
2023/06/09 05:50:49;;;;;;;12.63;11.32;;;20.40;99.90;;;-144.05;53.95;56863.69;5055137;28;20502;-80
2023/06/09 05:53:16;;;;;;;12.73;9.35;;;20.50;99.90;;;-144.05;53.78;56908.31;5053757;28;20375;-80
2023/06/09 05:55:47;;;;;;;14.43;11.02;;;20.60;99.90;;;-144.05;53.30;56906.19;5053576;28;20028;-82
2023/06/09 05:58:17;;;;;;;12.93;9.13;;;20.70;99.90;;;-144.05;53.27;56918.94;5055981;28;20044;-83
2023/06/09 06:00:44;;;;;;;13.77;9.35;;;20.90;99.90;;;-144.05;52.77;56925.28;5055611;28;20453;-83
2023/06/09 06:03:11;;;;;;;11.50;9.25;;;21.10;99.90;;;-144.05;52.15;56927.41;5055178;28;20025;-83
2023/06/09 06:05:38;;;;;;;12.43;9.38;;;21.30;99.90;;;-144.05;51.30;56916.81;5053505;28;20116;-81
2023/06/09 06:08:06;;;;;;;14.55;10.52;;;21.30;99.90;;;-144.05;50.48;56931.66;5053398;28;20051;-81
2023/06/09 06:10:32;;;;;;;12.52;10.02;;;21.40;99.90;;;-144.05;50.64;56927.41;5053808;28;20036;-79
2023/06/09 06:13:01;;;;;;;9.68;8.07;;;21.70;99.90;;;-144.05;50.28;56933.78;5055584;28;20033;-81
2023/06/09 06:15:27;;;;;;;11.82;9.13;;;21.70;99.90;;;-144.05;50.04;56957.16;5054231;28;20021;-84
2023/06/09 06:17:53;;;;;;;10.90;9.13;;;22.00;99.90;;;-144.05;49.34;56916.81;5054207;28;20099;-82
2023/06/09 06:20:20;;;;;;;13.85;9.35;;;21.90;99.90;;;-144.05;49.14;56938.03;5056569;28;20029;-81
2023/06/09 06:22:46;;;;;;;14.18;9.93;;;22.00;99.90;;;-144.05;48.59;56940.16;5066756;28;20025;-78
2023/06/09 06:25:13;;;;;;;13.10;9.20;;;21.90;99.90;;;-144.05;49.45;56925.28;5065101;28;20036;-80
2023/06/09 06:27:41;;;;;;;14.07;9.15;;;22.00;99.90;;;-144.05;48.47;56938.03;5081752;28;20510;-79
2023/06/09 06:30:08;;;;;;;11.45;8.90;;;22.10;99.90;;;-144.05;48.14;56925.28;5066954;28;20041;-78
2023/06/09 06:32:39;;;;;;;13.52;9.10;;;22.50;99.90;;;-144.05;47.65;56959.28;5069196;28;20029;-81
2023/06/09 06:35:07;;;;;;;11.52;9.75;;;22.50;99.90;;;-144.05;47.09;56925.28;5054864;28;20067;-81
2023/06/09 06:37:33;;;;;;;16.38;10.05;;;22.70;99.90;;;-144.05;47.78;56938.03;5052192;28;20029;-79
2023/06/09 06:39:59;;;;;;;12.63;8.88;;;22.40;99.90;;;-144.05;47.92;56918.94;5086051;22;20524;-84
2023/06/09 06:42:25;;;;;;;11.55;8.90;;;22.40;99.90;;;-144.05;46.71;56959.28;5076733;28;20020;-82
2023/06/09 06:44:50;;;;;;;10.85;9.20;;;22.60;99.90;;;-144.05;47.26;56959.28;5079799;28;20052;-82
2023/06/09 06:47:16;;;;;;;12.65;9.35;;;22.90;99.90;;;-144.05;45.63;56948.66;5076788;28;20088;-84
2023/06/09 06:49:42;;;;;;;11.55;7.40;;;23.10;99.90;;;-144.05;45.39;56961.41;5076113;28;20051;-85
2023/06/09 06:52:08;;;;;;;11.10;8.52;;;23.30;99.90;;;-144.05;44.96;56978.41;5076310;28;20170;-84
2023/06/09 06:54:34;;;;;;;13.27;7.18;;;23.60;99.90;;;-144.05;44.13;56984.78;5059048;28;20024;-84
2023/06/09 06:57:01;;;;;;;10.07;7.75;;;23.90;99.90;;;-144.05;43.44;56997.50;5061223;28;20055;-83
2023/06/09 06:59:26;;;;;;;11.23;7.68;;;24.00;99.90;;;-144.05;42.94;56986.91;5075561;28;20504;-83
2023/06/09 07:01:52;;;;;;;10.02;7.80;;;24.20;99.90;;;-144.05;42.34;56991.13;5075755;28;20033;-85
2023/06/09 07:04:18;;;;;;;8.20;7.18;;;24.30;99.90;;;-144.05;42.34;56999.63;5075743;28;20020;-83
2023/06/09 07:06:44;;;;;;;9.60;7.43;;;24.60;99.90;;;-144.05;42.19;56991.13;5058503;28;20033;-81
2023/06/09 07:09:10;;;;;;;9.43;7.65;;;24.60;99.90;;;-144.05;41.68;57035.75;5077094;28;20031;-81
2023/06/09 07:11:37;;;;;;;11.88;7.40;;;24.60;99.90;;;-144.05;40.86;56997.50;5078065;28;20474;-80
2023/06/09 07:14:02;;;;;;;9.40;6.82;;;24.70;99.90;;;-144.05;41.43;57003.88;5060346;28;20028;-81
2023/06/09 07:16:28;;;;;;;11.25;7.18;;;24.80;99.90;;;-144.05;41.08;57031.50;5060887;28;20043;-83
2023/06/09 07:18:54;;;;;;;14.02;7.00;;;25.00;99.90;;;-144.05;40.74;57027.25;5062633;28;20382;-83
2023/06/09 07:21:20;;;;;;;8.25;6.72;;;25.10;99.90;;;-144.05;40.36;57044.25;5084515;28;20028;-82
2023/06/09 07:23:46;;;;;;;12.10;7.05;;;25.20;99.90;;;-144.05;39.49;57042.13;5084051;28;20040;-79
2023/06/09 07:26:11;;;;;;;8.20;6.20;;;25.30;99.90;;;-144.05;39.82;57008.13;5065380;28;20028;-83
2023/06/09 07:28:37;;;;;;;10.25;7.05;;;25.60;99.90;;;-144.05;39.39;57016.63;5082737;28;20028;-83
2023/06/09 07:31:03;;;;;;;8.60;6.55;;;25.50;99.90;;;-144.05;38.60;57031.50;5082993;28;20031;-81
2023/06/09 07:33:32;;;;;;;9.10;6.32;;;25.70;99.90;;;-144.05;38.94;57031.50;5082885;28;20027;-81
2023/06/09 07:35:59;;;;;;;9.23;5.95;;;25.70;99.90;;;-144.05;40.04;57025.13;5083257;28;20027;-84
2023/06/09 07:38:26;;;;;;;9.55;6.70;;;25.60;99.90;;;-144.05;39.59;57035.75;5063452;28;20358;-80
2023/06/09 07:40:52;;;;;;;9.75;7.00;;;25.70;99.90;;;-144.05;38.37;57035.75;5081222;28;20028;-80
2023/06/09 07:43:18;;;;;;;8.88;7.18;;;25.80;99.90;;;-144.05;38.18;57044.25;5081471;28;20029;-80
2023/06/09 07:45:46;;;;;;;8.32;6.13;;;26.10;99.90;;;-144.05;38.24;57065.47;5080150;28;20036;-83
2023/06/09 07:48:12;;;;;;;11.02;6.40;;;26.20;99.90;;;-144.05;37.58;57078.22;5061456;28;20025;-82
2023/06/09 07:50:38;;;;;;;13.70;6.68;;;26.30;99.90;;;-144.05;36.68;57080.34;5077198;28;20035;-84
2023/06/09 07:53:04;;;;;;;11.48;6.38;;;26.50;99.90;;;-144.05;37.92;57056.97;5078615;28;20033;-82
2023/06/09 07:55:30;;;;;;;9.90;6.57;;;26.40;99.90;;;-144.05;37.87;57082.47;5078970;28;20050;-82
2023/06/09 07:57:56;;;;;;;7.95;5.93;;;26.50;99.90;;;-144.05;37.92;57099.47;5062853;28;20033;-81
2023/06/09 08:00:22;;;;;;;9.85;6.63;;;26.80;99.90;;;-144.05;37.63;57099.47;5082237;28;20029;-82
2023/06/09 08:02:50;;;;;;;7.57;5.90;;;26.90;99.90;;;-144.05;37.24;57073.97;5063450;28;20039;-82
2023/06/09 08:05:16;;;;;;;11.20;6.93;;;26.70;99.90;;;-144.05;36.70;57084.59;5064360;28;20056;-83
2023/06/09 08:07:42;;;;;;;8.30;6.15;;;27.00;99.80;;;-144.05;37.13;57076.09;5065167;28;20024;-83
2023/06/09 08:10:08;;;;;;;7.03;5.68;;;27.00;99.90;;;-144.05;36.64;57088.84;5080831;28;20055;-83
2023/06/09 08:12:37;;;;;;;10.27;6.50;;;27.30;99.60;;;-144.05;36.32;57114.34;5082879;28;20028;-80
2023/06/09 08:15:03;;;;;;;7.88;6.22;;;27.50;99.60;;;-144.05;36.00;57114.34;5082959;28;20106;-80
2023/06/09 08:17:29;;;;;;;9.05;6.78;;;27.50;98.00;;;-144.05;36.08;57131.31;5083649;28;20024;-80
2023/06/09 08:19:55;;;;;;;7.30;5.72;;;27.40;98.40;;;-144.05;35.95;57097.34;5082631;28;20056;-81
2023/06/09 08:22:21;;;;;;;7.13;5.53;;;27.40;97.50;;;-144.05;36.26;57116.47;5083809;28;20028;-82
2023/06/09 08:24:47;;;;;;;7.28;5.80;;;27.30;97.80;;;-144.05;35.39;57105.84;5065749;28;20115;-80
2023/06/09 08:27:13;;;;;;;8.18;6.03;;;27.80;96.20;;;-144.05;35.60;57133.44;5083424;28;20021;-81
2023/06/09 08:29:39;;;;;;;9.93;6.13;;;27.80;96.30;;;-144.05;34.63;57131.31;5079882;28;20123;-81
2023/06/09 08:32:06;;;;;;;8.45;6.28;;;28.00;95.30;;;-144.05;34.92;57163.19;5079785;28;20101;-81
2023/06/09 08:34:32;;;;;;;8.15;5.45;;;28.30;95.40;;;-144.05;35.12;57133.44;5082423;28;20020;-80
2023/06/09 08:36:58;;;;;;;9.05;5.60;;;28.40;95.30;;;-144.05;35.04;57152.56;5080711;28;20478;-83
2023/06/09 08:39:24;;;;;;;7.90;5.82;;;28.40;95.10;;;-144.05;35.05;57173.81;5064263;28;20029;-82
2023/06/09 08:41:56;;;;;;;8.43;5.80;;;28.30;94.80;;;-144.05;34.29;57150.44;5081218;28;20093;-81
2023/06/09 08:44:28;;;;;;;8.25;5.85;;;28.40;93.70;;;-144.05;34.84;57129.22;5062282;28;20032;-80
2023/06/09 08:47:01;;;;;;;7.03;5.18;;;28.20;94.10;;;-144.05;35.20;57150.44;5061410;28;20564;-84
2023/06/09 08:49:29;;;;;;;7.05;5.38;;;28.40;95.10;;;-144.05;34.26;57214.16;5079904;28;20481;-81
2023/06/09 08:51:58;;;;;;;7.03;5.68;;;28.90;93.70;;;-144.05;33.96;57186.56;5080031;28;20123;-84
2023/06/09 08:54:25;;;;;;;8.25;5.50;;;29.10;93.30;;;-144.05;33.06;57199.31;5080105;28;20108;-82
2023/06/09 08:56:52;;;;;;;6.47;5.85;;;29.30;91.10;;;-144.05;33.96;57188.69;5061920;28;20021;-83
2023/06/09 08:59:21;;;;;;;7.72;5.43;;;28.90;91.60;;;-144.05;33.71;57201.44;5063486;28;20024;-81
2023/06/09 09:01:49;;;;;;;6.45;5.38;;;28.90;91.50;;;-144.05;33.41;57169.56;5080570;28;20037;-82
2023/06/09 09:04:17;;;;;;;11.23;5.18;;;29.00;90.40;;;-144.05;33.53;57214.16;5089187;28;20029;-80
2023/06/09 09:06:43;;;;;;;6.30;4.43;;;29.20;90.80;;;-144.05;32.88;57188.69;5087000;28;20024;-83
2023/06/09 09:09:09;;;;;;;5.95;5.13;;;29.50;90.00;;;-144.05;33.08;57203.56;5078545;28;20450;-79
2023/06/09 09:11:35;;;;;;;8.23;4.50;;;29.70;89.80;;;-144.05;32.12;57197.19;5081336;28;20031;-81
2023/06/09 09:14:12;;;;;;;7.70;5.05;;;29.60;84.00;;;-144.05;32.85;57201.44;5063697;28;20031;-83
2023/06/09 09:16:38;;;;;;;6.82;5.57;;;29.60;87.20;;;-144.05;33.18;57184.44;5063570;28;20029;-81
2023/06/09 09:19:04;;;;;;;6.82;5.40;;;29.30;87.60;;;-144.05;33.13;57139.81;5080377;28;20017;-84
2023/06/09 09:21:33;;;;;;;7.35;5.60;;;29.20;88.70;;;-144.05;33.30;57201.44;5080622;28;20032;-83
2023/06/09 09:24:04;;;;;;;6.63;5.03;;;29.20;88.10;;;-144.05;33.12;57169.56;5076667;28;20027;-82
2023/06/09 09:26:31;;;;;;;7.03;5.30;;;29.50;86.70;;;-144.05;32.70;57224.78;5076336;28;20027;-82
2023/06/09 09:29:07;;;;;;;8.75;5.22;;;29.70;85.90;;;-144.05;32.74;57222.66;5057881;28;20121;-81
2023/06/09 09:31:38;;;;;;;8.77;5.20;;;29.70;87.00;;;-144.05;32.68;57218.41;5075607;28;20036;-82
2023/06/09 09:34:11;;;;;;;5.90;5.30;;;29.80;85.30;;;-144.05;33.14;57201.44;5076349;28;20036;-82
2023/06/09 09:36:47;;;;;;;7.55;5.97;;;29.80;86.30;;;-144.05;32.94;57205.66;5057974;28;20500;-82
2023/06/09 09:39:15;;;;;;;8.70;5.28;;;29.60;84.60;;;-144.05;32.68;57216.28;5075284;28;20291;-82
2023/06/09 09:42:08;;;;;;;7.40;5.65;;;29.60;84.20;;;-144.05;32.74;57207.78;5056918;28;20029;-85
2023/06/09 09:44:43;;;;;;;6.75;5.40;;;29.70;84.70;;;-144.05;32.30;57216.28;5075318;28;20028;-82
2023/06/09 09:47:12;;;;;;;7.30;5.22;;;29.80;83.10;;;-144.05;32.21;57207.78;5057315;28;20075;-85
2023/06/09 09:49:53;;;;;;;6.05;4.45;;;30.10;82.90;;;-144.05;31.95;57256.66;5057034;28;20058;-82
2023/06/09 09:52:29;;;;;;;6.05;4.90;;;30.50;82.90;;;-144.05;31.17;57258.78;5074745;28;20028;-83
2023/06/09 09:55:00;;;;;;;5.63;5.07;;;30.30;79.70;;;-144.05;32.11;57192.94;5056923;28;20020;-82
2023/06/09 09:57:32;;;;;;;8.95;5.13;;;29.90;80.70;;;-144.05;31.96;57226.91;5076067;28;20032;-80
2023/06/09 10:00:00;;;;;;;6.97;4.80;;;30.00;80.10;;;-144.05;31.45;57190.81;5074940;28;20025;-83
2023/06/09 10:02:30;;;;;;;5.72;4.72;;;30.00;78.00;;;-144.05;31.48;57167.44;5075045;28;20040;-83
2023/06/09 10:05:05;;;;;;;5.43;4.65;;;29.70;77.90;;;-144.05;31.92;57173.81;5075657;28;20078;-83